createdAt,value
2023-02-12T00:00:16.898Z,1.38
2023-02-12T00:02:19.044Z,1.30
2023-02-12T00:04:20.712Z,1.32
2023-02-12T00:06:22.919Z,1.29
2023-02-12T00:08:24.620Z,1.34
2023-02-12T00:10:26.314Z,1.37
2023-02-12T00:12:27.931Z,1.41
2023-02-12T00:14:29.543Z,1.43
2023-02-12T00:16:31.274Z,1.37
2023-02-12T00:18:32.931Z,1.35
2023-02-12T00:20:34.899Z,1.31
2023-02-12T00:22:36.582Z,1.33
2023-02-12T00:24:38.240Z,1.34
2023-02-12T00:26:39.966Z,1.35
2023-02-12T00:28:41.940Z,1.34
2023-02-12T00:30:43.793Z,1.38
2023-02-12T00:32:46.422Z,1.40
2023-02-12T00:34:48.077Z,1.41
2023-02-12T00:36:49.664Z,1.47
2023-02-12T00:38:53.067Z,1.32
2023-02-12T00:40:54.886Z,1.26
2023-02-12T00:42:56.479Z,1.32
2023-02-12T00:44:58.109Z,1.38
2023-02-12T00:47:02.476Z,1.28
2023-02-12T00:49:04.165Z,1.36
2023-02-12T00:51:06.040Z,1.40
2023-02-12T00:53:08.394Z,1.41
2023-02-12T00:55:10.032Z,1.41
2023-02-12T00:57:11.696Z,1.39
2023-02-12T00:59:13.279Z,1.44
2023-02-12T01:01:15.054Z,1.46
2023-02-12T01:03:17.108Z,1.45
2023-02-12T01:05:19.717Z,1.41
2023-02-12T01:07:21.565Z,1.47
2023-02-12T01:09:23.222Z,1.41
2023-02-12T01:11:24.810Z,1.35
2023-02-12T01:13:27.398Z,1.39
2023-02-12T01:15:29.066Z,1.42
2023-02-12T01:17:30.684Z,1.45
2023-02-12T01:19:32.379Z,1.34
2023-02-12T01:21:35.302Z,1.43
2023-02-12T01:23:36.990Z,1.32
2023-02-12T01:25:38.991Z,1.38
2023-02-12T01:27:40.995Z,1.39
2023-02-12T01:29:44.777Z,1.22
2023-02-12T01:31:46.641Z,1.28
2023-02-12T01:33:49.779Z,1.17
2023-02-12T01:35:51.456Z,1.23
2023-02-12T01:37:53.230Z,1.23
2023-02-12T01:39:54.965Z,1.23
2023-02-12T01:41:56.699Z,1.26
2023-02-12T01:44:06.155Z,1.19
2023-02-12T01:46:10.782Z,1.28
2023-02-12T01:48:14.641Z,1.23
2023-02-12T01:50:18.943Z,1.22
2023-02-12T01:52:27.784Z,1.21
2023-02-12T01:54:29.886Z,1.19
2023-02-12T01:56:32.213Z,1.21
2023-02-12T01:58:39.738Z,1.29
2023-02-12T02:00:41.477Z,1.31
2023-02-12T02:02:45.511Z,1.33
2023-02-12T02:04:52.404Z,1.27
2023-02-12T02:06:57.682Z,1.34
2023-02-12T02:08:59.321Z,1.25
2023-02-12T02:11:00.954Z,1.16
2023-02-12T02:13:21.580Z,1.20
2023-02-12T02:15:23.639Z,1.13
2023-02-12T02:17:55.728Z,1.12
2023-02-12T02:20:22.784Z,1.16
2023-02-12T02:23:01.881Z,1.21
2023-02-12T02:25:15.882Z,1.18
2023-02-12T02:27:28.661Z,1.19
2023-02-12T02:30:14.909Z,1.28
2023-02-12T02:32:23.314Z,1.27
2023-02-12T02:34:35.080Z,1.30
2023-02-12T02:37:00.874Z,1.40
2023-02-12T02:39:11.056Z,1.26
2023-02-12T02:41:20.568Z,1.21
2023-02-12T02:43:49.699Z,1.19
2023-02-12T02:45:53.526Z,1.19
2023-02-12T02:48:14.135Z,1.22
2023-02-12T02:50:18.800Z,1.27
2023-02-12T02:52:25.753Z,1.32
2023-02-12T02:54:40.518Z,1.29
2023-02-12T02:56:45.425Z,1.32
2023-02-12T02:58:52.495Z,1.39
2023-02-12T03:01:14.288Z,1.46
2023-02-12T03:03:39.766Z,1.47
2023-02-12T03:05:47.630Z,1.42
2023-02-12T03:07:54.225Z,1.32
2023-02-12T03:10:32.079Z,1.15
2023-02-12T03:12:41.757Z,1.00
2023-02-12T03:14:54.488Z,1.07
2023-02-12T03:17:04.617Z,1.17
2023-02-12T03:19:13.989Z,1.20
2023-02-12T03:21:19.606Z,1.21
2023-02-12T03:23:26.144Z,1.11
2023-02-12T03:25:36.869Z,1.17
2023-02-12T03:27:47.630Z,1.17
2023-02-12T03:29:49.302Z,1.15
2023-02-12T03:32:39.128Z,0.88
2023-02-12T03:35:10.341Z,0.82
2023-02-12T03:37:19.388Z,0.90
2023-02-12T03:39:41.972Z,0.95
2023-02-12T03:42:04.566Z,1.05
2023-02-12T03:44:18.909Z,1.00
2023-02-12T03:46:25.550Z,0.98
2023-02-12T03:48:42.209Z,1.02
2023-02-12T03:50:58.973Z,0.95
2023-02-12T03:53:00.556Z,0.88
2023-02-12T03:55:03.141Z,0.72
2023-02-12T03:57:10.890Z,0.63
2023-02-12T03:59:12.716Z,0.67
2023-02-12T04:01:14.828Z,0.57
2023-02-12T04:03:16.510Z,0.60
2023-02-12T04:05:20.040Z,0.43
2023-02-12T04:07:21.885Z,0.50
2023-02-12T04:09:25.397Z,0.49
2023-02-12T04:11:58.055Z,0.28
2023-02-12T04:14:32.851Z,0.32
2023-02-12T04:16:46.272Z,0.31
2023-02-12T04:18:51.775Z,0.16
2023-02-12T04:21:21.112Z,0.01
2023-02-12T04:23:40.957Z,-0.15
2023-02-12T04:25:54.027Z,-0.14
2023-02-12T04:27:57.494Z,-0.25
2023-02-12T04:30:21.817Z,-0.32
2023-02-12T04:32:38.795Z,-0.29
2023-02-12T04:34:46.183Z,-0.29
2023-02-12T04:36:59.572Z,-0.35
2023-02-12T04:39:08.690Z,-0.37
2023-02-12T04:41:10.751Z,-0.34
2023-02-12T04:43:12.675Z,-0.35
2023-02-12T04:45:17.184Z,-0.36
2023-02-12T04:47:18.816Z,-0.45
2023-02-12T04:49:21.718Z,-0.39
2023-02-12T04:51:23.747Z,-0.36
2023-02-12T04:53:25.416Z,-0.32
2023-02-12T04:55:27.120Z,-0.26
2023-02-12T04:57:28.779Z,-0.21
2023-02-12T04:59:30.467Z,-0.09
2023-02-12T05:01:35.334Z,-0.04
2023-02-12T05:03:37.698Z,0.06
2023-02-12T05:05:39.268Z,0.07
2023-02-12T05:07:40.967Z,0.22
2023-02-12T05:09:42.661Z,0.33
2023-02-12T05:11:44.759Z,0.34
2023-02-12T05:13:53.389Z,0.45
2023-02-12T05:15:55.478Z,0.52
2023-02-12T05:17:57.321Z,0.53
2023-02-12T05:19:58.965Z,0.62
2023-02-12T05:22:00.640Z,0.70
2023-02-12T05:24:03.308Z,0.81
2023-02-12T05:26:07.379Z,0.82
2023-02-12T05:28:09.027Z,0.77
2023-02-12T05:30:11.078Z,0.83
2023-02-12T05:32:12.875Z,0.80
2023-02-12T05:34:14.595Z,0.74
2023-02-12T05:36:18.645Z,0.79
2023-02-12T05:38:20.280Z,0.67
2023-02-12T05:40:22.014Z,0.73
2023-02-12T05:42:23.632Z,0.76
2023-02-12T05:44:25.200Z,0.78
2023-02-12T05:46:27.055Z,0.74
2023-02-12T05:48:29.520Z,0.58
2023-02-12T05:50:31.078Z,0.54
2023-02-12T05:52:33.868Z,0.64
2023-02-12T05:54:35.560Z,0.68
2023-02-12T05:56:42.106Z,0.74
2023-02-12T05:58:52.833Z,0.76
2023-02-12T06:00:54.464Z,0.84
2023-02-12T06:02:56.304Z,0.79
2023-02-12T06:04:57.900Z,0.78
2023-02-12T06:07:00.752Z,0.86
2023-02-12T06:09:02.800Z,0.90
2023-02-12T06:11:06.623Z,0.97
2023-02-12T06:13:08.311Z,0.89
2023-02-12T06:15:09.963Z,0.80
2023-02-12T06:17:11.733Z,0.72
2023-02-12T06:19:13.543Z,0.76
2023-02-12T06:21:16.070Z,0.78
2023-02-12T06:23:17.697Z,0.80
2023-02-12T06:25:19.314Z,0.75
2023-02-12T06:27:21.005Z,0.80
2023-02-12T06:29:23.012Z,0.86
2023-02-12T06:31:27.659Z,0.88
2023-02-12T06:33:29.392Z,0.78
2023-02-12T06:35:30.965Z,0.79
2023-02-12T06:37:32.923Z,0.86
2023-02-12T06:39:34.532Z,0.82
2023-02-12T06:41:36.124Z,0.89
2023-02-12T06:43:37.927Z,0.92
2023-02-12T06:45:39.663Z,0.93
2023-02-12T06:47:41.284Z,0.80
2023-02-12T06:49:42.950Z,0.80
2023-02-12T06:51:44.597Z,0.80
2023-02-12T06:53:46.171Z,0.81
2023-02-12T06:55:47.804Z,0.81
2023-02-12T06:57:49.501Z,0.84
2023-02-12T06:59:51.119Z,0.85
2023-02-12T07:01:52.752Z,0.85
2023-02-12T07:03:57.654Z,0.91
2023-02-12T07:05:59.300Z,0.94
2023-02-12T07:08:00.909Z,1.01
2023-02-12T07:10:02.564Z,1.05
2023-02-12T07:12:04.777Z,1.07
2023-02-12T07:14:07.513Z,1.06
2023-02-12T07:16:14.480Z,1.03
2023-02-12T07:18:16.092Z,1.11
2023-02-12T07:20:17.952Z,1.03
2023-02-12T07:22:20.784Z,1.06
2023-02-12T07:24:22.440Z,1.07
2023-02-12T07:26:24.284Z,1.05
2023-02-12T07:28:26.987Z,1.04
2023-02-12T07:30:28.676Z,1.06
2023-02-12T07:32:32.808Z,1.13
2023-02-12T07:34:34.439Z,1.17
2023-02-12T07:36:36.332Z,1.05
2023-02-12T07:38:41.297Z,0.90
2023-02-12T07:40:43.741Z,0.77
2023-02-12T07:42:45.343Z,0.45
2023-02-12T07:44:46.967Z,0.05
2023-02-12T07:46:49.499Z,0.09
2023-02-12T07:48:51.564Z,0.16
2023-02-12T07:50:53.109Z,0.06
2023-02-12T07:52:54.778Z,0.17
2023-02-12T07:54:56.446Z,-0.07
2023-02-12T07:56:58.436Z,-0.07
2023-02-12T07:59:02.191Z,-0.04
2023-02-12T08:01:23.754Z,-0.01
2023-02-12T08:03:25.420Z,-0.04
2023-02-12T08:05:28.223Z,0.10
2023-02-12T08:07:29.837Z,-0.17
2023-02-12T08:09:31.485Z,-0.17
2023-02-12T08:11:36.875Z,-0.35
2023-02-12T08:13:39.031Z,-0.33
2023-02-12T08:15:40.600Z,-0.38
2023-02-12T08:17:43.658Z,-0.33
2023-02-12T08:19:45.316Z,-0.25
2023-02-12T08:21:50.471Z,-0.06
2023-02-12T08:23:54.181Z,0.05
2023-02-12T08:25:56.152Z,0.17
2023-02-12T08:27:57.954Z,0.24
2023-02-12T08:29:59.601Z,0.37
2023-02-12T08:32:02.785Z,0.49
2023-02-12T08:34:05.031Z,0.57
2023-02-12T08:36:12.214Z,0.68
2023-02-12T08:38:13.844Z,0.68
2023-02-12T08:40:15.476Z,0.63
2023-02-12T08:42:17.081Z,0.72
2023-02-12T08:44:18.960Z,0.81
2023-02-12T08:46:22.805Z,0.84
2023-02-12T08:48:24.318Z,0.92
2023-02-12T08:50:25.931Z,0.82
2023-02-12T08:52:27.547Z,0.95
2023-02-12T08:54:30.679Z,0.96
2023-02-12T08:56:33.543Z,0.94
2023-02-12T08:58:35.672Z,0.95
2023-02-12T09:00:39.553Z,1.02
2023-02-12T09:02:42.140Z,1.07
2023-02-12T09:04:43.849Z,1.08
2023-02-12T09:06:46.486Z,1.03
2023-02-12T09:08:48.720Z,1.05
2023-02-12T09:10:50.402Z,1.17
2023-02-12T09:12:52.014Z,1.29
2023-02-12T09:14:53.632Z,1.33
2023-02-12T09:16:57.374Z,1.29
2023-02-12T09:18:59.201Z,1.26
2023-02-12T09:21:03.365Z,1.27
2023-02-12T09:23:05.883Z,1.24
2023-02-12T09:25:07.678Z,1.25
2023-02-12T09:27:09.300Z,1.30
2023-02-12T09:29:10.990Z,1.30
2023-02-12T09:31:17.858Z,1.42
2023-02-12T09:33:19.582Z,1.45
2023-02-12T09:35:21.366Z,1.43
2023-02-12T09:37:22.987Z,1.52
2023-02-12T09:39:24.627Z,1.59
2023-02-12T09:42:07.272Z,1.58
2023-02-12T09:44:16.042Z,1.61
2023-02-12T09:46:32.622Z,1.53
2023-02-12T09:49:02.056Z,1.60
2023-02-12T09:51:07.748Z,1.65
2023-02-12T09:53:13.465Z,1.70
2023-02-12T09:55:16.639Z,1.71
2023-02-12T09:57:23.981Z,1.60
2023-02-12T09:59:35.983Z,1.58
2023-02-12T10:01:37.700Z,1.50
2023-02-12T10:03:39.618Z,1.48
2023-02-12T10:05:49.709Z,1.49
2023-02-12T10:08:24.859Z,1.52
2023-02-12T10:10:26.556Z,1.51
2023-02-12T10:12:47.688Z,1.60
2023-02-12T10:15:01.284Z,1.59
2023-02-12T10:17:24.085Z,1.74
2023-02-12T10:19:49.198Z,1.87
2023-02-12T10:22:03.453Z,1.97
2023-02-12T10:24:13.743Z,2.07
2023-02-12T10:26:28.827Z,2.14
2023-02-12T10:28:35.939Z,2.23
2023-02-12T10:30:53.254Z,2.09
2023-02-12T10:32:59.485Z,2.20
2023-02-12T10:35:02.406Z,2.25
2023-02-12T10:37:12.320Z,2.22
2023-02-12T10:39:25.230Z,2.22
2023-02-12T10:41:28.633Z,2.24
2023-02-12T10:43:30.641Z,2.25
2023-02-12T10:45:39.848Z,2.32
2023-02-12T10:47:41.597Z,2.40
2023-02-12T10:49:43.238Z,2.51
2023-02-12T10:51:59.508Z,2.55
2023-02-12T10:54:35.927Z,2.54
2023-02-12T10:56:37.563Z,2.55
2023-02-12T10:58:53.911Z,2.59
2023-02-12T11:01:00.410Z,2.69
2023-02-12T11:03:14.137Z,2.70
2023-02-12T11:05:26.365Z,2.68
2023-02-12T11:07:28.638Z,2.59
2023-02-12T11:09:45.493Z,2.64
2023-02-12T11:11:49.516Z,2.64
2023-02-12T11:14:05.656Z,2.53
2023-02-12T11:16:08.220Z,2.26
2023-02-12T11:18:26.173Z,2.41
2023-02-12T11:20:52.042Z,2.57
2023-02-12T11:23:06.325Z,2.72
2023-02-12T11:25:16.040Z,2.81
2023-02-12T11:27:25.827Z,2.94
2023-02-12T11:29:27.438Z,2.76
2023-02-12T11:31:31.745Z,2.58
2023-02-12T11:33:35.303Z,2.37
2023-02-12T11:35:37.215Z,2.28
2023-02-12T11:37:46.352Z,2.44
2023-02-12T11:39:49.245Z,2.56
2023-02-12T11:41:56.862Z,2.33
2023-02-12T11:43:58.719Z,2.34
2023-02-12T11:46:00.902Z,2.59
2023-02-12T11:48:02.732Z,2.69
2023-02-12T11:50:07.386Z,2.87
2023-02-12T11:52:21.267Z,3.02
2023-02-12T11:54:25.875Z,3.17
2023-02-12T11:56:42.116Z,3.28
2023-02-12T11:58:44.985Z,3.39
2023-02-12T12:01:03.577Z,3.42
2023-02-12T12:03:27.174Z,3.27
2023-02-12T12:05:35.538Z,2.87
2023-02-12T12:07:39.959Z,2.98
2023-02-12T12:09:46.204Z,3.01
2023-02-12T12:12:00.261Z,3.24
2023-02-12T12:14:07.281Z,3.44
2023-02-12T12:16:31.939Z,3.57
2023-02-12T12:18:51.949Z,3.69
2023-02-12T12:20:57.003Z,3.52
2023-02-12T12:23:19.438Z,3.37
2023-02-12T12:25:25.626Z,3.45
2023-02-12T12:28:00.896Z,3.54
2023-02-12T12:30:07.019Z,3.63
2023-02-12T12:32:10.430Z,3.63
2023-02-12T12:34:20.622Z,3.53
2023-02-12T12:36:55.868Z,3.49
2023-02-12T12:39:24.985Z,3.56
2023-02-12T12:41:49.967Z,3.63
2023-02-12T12:44:03.860Z,3.57
2023-02-12T12:46:18.647Z,3.64
2023-02-12T12:48:26.065Z,3.73
2023-02-12T12:50:43.395Z,3.76
2023-02-12T12:52:50.696Z,3.46
2023-02-12T12:55:26.384Z,3.02
2023-02-12T12:57:44.306Z,3.07
2023-02-12T12:59:53.485Z,3.30
2023-02-12T13:02:00.344Z,3.36
2023-02-12T13:04:26.729Z,3.42
2023-02-12T13:06:40.372Z,3.55
2023-02-12T13:09:00.809Z,3.65
2023-02-12T13:11:28.625Z,3.72
2023-02-12T13:13:33.269Z,3.80
2023-02-12T13:15:55.351Z,3.76
2023-02-12T13:18:09.747Z,3.69
2023-02-12T13:20:22.545Z,3.69
2023-02-12T13:23:00.329Z,3.71
2023-02-12T13:25:19.357Z,3.79
2023-02-12T13:27:24.666Z,3.81
2023-02-12T13:29:51.890Z,3.63
2023-02-12T13:31:57.315Z,3.59
2023-02-12T13:34:02.341Z,3.58
2023-02-12T13:36:05.929Z,3.59
2023-02-12T13:38:09.518Z,3.51
2023-02-12T13:40:22.565Z,3.51
2023-02-12T13:42:50.527Z,3.62
2023-02-12T13:45:18.158Z,3.64
2023-02-12T13:47:45.628Z,3.56
2023-02-12T13:49:52.186Z,3.56
2023-02-12T13:52:00.558Z,3.53
2023-02-12T13:54:11.167Z,3.56
2023-02-12T13:56:29.830Z,3.67
2023-02-12T13:58:31.764Z,3.73
2023-02-12T14:00:51.458Z,3.72
2023-02-12T14:02:53.257Z,3.72
2023-02-12T14:05:03.524Z,3.65
2023-02-12T14:07:10.034Z,3.61
2023-02-12T14:09:11.708Z,3.69
2023-02-12T14:11:16.700Z,3.55
2023-02-12T14:13:21.736Z,3.32
2023-02-12T14:15:36.681Z,3.21
2023-02-12T14:17:40.480Z,3.35
2023-02-12T14:19:51.258Z,3.40
2023-02-12T14:21:52.958Z,3.47
2023-02-12T14:23:54.566Z,3.58
2023-02-12T14:26:14.073Z,3.66
2023-02-12T14:28:26.749Z,3.63
2023-02-12T14:30:39.176Z,3.63
2023-02-12T14:32:44.977Z,3.64
2023-02-12T14:34:47.083Z,3.76
2023-02-12T14:36:51.495Z,3.71
2023-02-12T14:38:58.607Z,3.74
2023-02-12T14:41:45.173Z,3.75
2023-02-12T14:44:01.655Z,3.67
2023-02-12T14:46:24.874Z,3.61
2023-02-12T14:48:45.301Z,3.61
2023-02-12T14:50:52.023Z,3.44
2023-02-12T14:52:59.355Z,3.49
2023-02-12T14:55:39.096Z,3.48
2023-02-12T14:57:41.457Z,3.43
2023-02-12T14:59:44.293Z,3.44
2023-02-12T15:01:46.098Z,2.98
2023-02-12T15:03:51.442Z,2.57
2023-02-12T15:06:13.208Z,2.65
2023-02-12T15:08:39.394Z,2.84
2023-02-12T15:10:50.679Z,2.98
2023-02-12T15:13:00.255Z,3.10
2023-02-12T15:15:01.795Z,3.20
2023-02-12T15:17:10.150Z,3.01
2023-02-12T15:19:39.499Z,2.67
2023-02-12T15:21:41.694Z,2.79
2023-02-12T15:23:45.430Z,2.90
2023-02-12T15:25:50.736Z,3.05
2023-02-12T15:27:58.936Z,3.11
2023-02-12T15:30:00.675Z,3.15
2023-02-12T15:32:05.080Z,3.18
2023-02-12T15:34:06.816Z,3.22
2023-02-12T15:36:09.939Z,3.22
2023-02-12T15:38:21.364Z,3.25
2023-02-12T15:40:23.521Z,3.23
2023-02-12T15:42:28.698Z,3.31
2023-02-12T15:44:32.576Z,3.31
2023-02-12T15:46:34.137Z,3.24
2023-02-12T15:48:36.963Z,3.23
2023-02-12T15:50:50.623Z,3.27
2023-02-12T15:52:53.051Z,3.30
2023-02-12T15:54:55.070Z,3.27
2023-02-12T15:56:56.796Z,3.31
2023-02-12T15:59:00.781Z,3.36
2023-02-12T16:01:05.813Z,3.37
2023-02-12T16:03:21.155Z,3.36
2023-02-12T16:05:23.131Z,3.37
2023-02-12T16:07:26.335Z,3.34
2023-02-12T16:09:32.283Z,3.31
2023-02-12T16:11:34.589Z,3.35
2023-02-12T16:13:37.091Z,3.36
2023-02-12T16:15:40.354Z,3.36
2023-02-12T16:17:47.345Z,3.30
2023-02-12T16:20:04.479Z,3.31
2023-02-12T16:22:07.604Z,3.33
2023-02-12T16:24:37.969Z,3.31
2023-02-12T16:26:39.674Z,3.27
2023-02-12T16:28:46.948Z,3.23
2023-02-12T16:30:48.693Z,3.16
2023-02-12T16:32:50.745Z,3.15
2023-02-12T16:35:25.284Z,3.13
2023-02-12T16:37:38.962Z,3.20
2023-02-12T16:40:06.108Z,3.26
2023-02-12T16:42:15.226Z,3.33
2023-02-12T16:44:16.860Z,3.33
2023-02-12T16:46:19.136Z,3.37
2023-02-12T16:48:24.837Z,3.43
2023-02-12T16:50:30.324Z,3.47
2023-02-12T16:52:37.741Z,3.44
2023-02-12T16:54:39.476Z,3.19
2023-02-12T16:56:42.031Z,3.18
2023-02-12T16:58:44.878Z,3.22
2023-02-12T17:00:46.703Z,3.30
2023-02-12T17:02:48.550Z,3.33
2023-02-12T17:04:50.191Z,3.36
2023-02-12T17:06:52.024Z,3.36
2023-02-12T17:08:53.646Z,3.12
2023-02-12T17:10:55.247Z,3.15
2023-02-12T17:12:56.858Z,3.20
2023-02-12T17:14:58.466Z,3.23
2023-02-12T17:17:00.096Z,3.22
2023-02-12T17:19:01.815Z,3.27
2023-02-12T17:21:05.779Z,3.31
2023-02-12T17:23:07.214Z,3.36
2023-02-12T17:25:10.204Z,3.38
2023-02-12T17:27:13.834Z,3.38
2023-02-12T17:29:15.420Z,3.37
2023-02-12T17:31:17.246Z,3.36
2023-02-12T17:33:19.330Z,3.40
2023-02-12T17:35:21.002Z,3.39
2023-02-12T17:37:24.652Z,3.41
2023-02-12T17:39:26.251Z,3.44
2023-02-12T17:41:27.917Z,3.45
2023-02-12T17:43:29.536Z,3.46
2023-02-12T17:45:31.493Z,3.49
2023-02-12T17:47:39.708Z,3.49
2023-02-12T17:49:42.061Z,3.52
2023-02-12T17:51:43.711Z,3.52
2023-02-12T17:53:45.674Z,3.53
2023-02-12T17:55:47.263Z,3.54
2023-02-12T17:57:53.260Z,3.53
2023-02-12T17:59:54.863Z,3.55
2023-02-12T18:01:56.621Z,3.48
2023-02-12T18:03:58.899Z,3.49
2023-02-12T18:06:00.618Z,3.41
2023-02-12T18:08:03.617Z,3.34
2023-02-12T18:10:06.822Z,3.38
2023-02-12T18:12:08.788Z,3.39
2023-02-12T18:14:11.512Z,3.43
2023-02-12T18:16:14.026Z,3.40
2023-02-12T18:18:16.798Z,3.33
2023-02-12T18:20:18.462Z,3.22
2023-02-12T18:22:21.240Z,3.17
2023-02-12T18:24:22.854Z,3.12
2023-02-12T18:26:24.558Z,3.08
2023-02-12T18:28:26.220Z,3.12
2023-02-12T18:30:28.597Z,3.15
2023-02-12T18:32:30.367Z,3.21
2023-02-12T18:34:32.046Z,3.23
2023-02-12T18:36:33.754Z,3.25
2023-02-12T18:38:36.557Z,3.28
2023-02-12T18:40:40.335Z,3.36
2023-02-12T18:42:42.082Z,3.39
2023-02-12T18:44:43.760Z,3.24
2023-02-12T18:46:45.461Z,2.86
2023-02-12T18:48:47.429Z,2.46
2023-02-12T18:50:51.772Z,2.30
2023-02-12T18:52:53.575Z,2.10
2023-02-12T18:54:55.427Z,2.07
2023-02-12T18:56:57.058Z,2.02
2023-02-12T18:58:59.878Z,2.04
2023-02-12T19:01:01.963Z,1.98
2023-02-12T19:03:03.691Z,1.99
2023-02-12T19:05:05.597Z,1.92
2023-02-12T19:07:07.176Z,1.87
2023-02-12T19:09:09.233Z,1.90
2023-02-12T19:11:11.680Z,1.92
2023-02-12T19:13:13.248Z,1.94
2023-02-12T19:15:14.814Z,2.08
2023-02-12T19:17:16.560Z,2.17
2023-02-12T19:19:21.930Z,2.21
2023-02-12T19:21:26.399Z,2.24
2023-02-12T19:23:28.120Z,2.31
2023-02-12T19:25:29.685Z,2.38
2023-02-12T19:27:31.958Z,2.42
2023-02-12T19:29:33.607Z,2.46
2023-02-12T19:31:37.904Z,2.50
2023-02-12T19:33:41.038Z,2.54
2023-02-12T19:35:43.231Z,2.63
2023-02-12T19:37:44.796Z,2.72
2023-02-12T19:39:46.465Z,2.80
2023-02-12T19:41:48.775Z,2.85
2023-02-12T19:43:58.471Z,2.91
2023-02-12T19:46:20.664Z,2.96
2023-02-12T19:48:22.328Z,2.96
2023-02-12T19:50:23.962Z,2.98
2023-02-12T19:52:25.662Z,3.05
2023-02-12T19:54:27.427Z,3.04
2023-02-12T19:56:29.096Z,3.01
2023-02-12T19:58:31.286Z,2.90
2023-02-12T20:00:32.853Z,2.65
2023-02-12T20:02:34.579Z,2.54
2023-02-12T20:04:37.007Z,2.60
2023-02-12T20:06:39.538Z,2.68
2023-02-12T20:08:42.062Z,2.66
2023-02-12T20:10:43.748Z,2.64
2023-02-12T20:12:45.450Z,2.67
2023-02-12T20:14:47.009Z,2.53
2023-02-12T20:16:50.183Z,2.50
2023-02-12T20:18:53.569Z,2.56
2023-02-12T20:20:55.416Z,2.64
2023-02-12T20:22:57.239Z,2.74
2023-02-12T20:24:58.802Z,2.79
2023-02-12T20:27:01.773Z,2.81
2023-02-12T20:29:05.378Z,2.86
2023-02-12T20:31:12.630Z,2.86
2023-02-12T20:33:14.416Z,2.80
2023-02-12T20:35:16.225Z,2.68
2023-02-12T20:37:18.949Z,2.67
2023-02-12T20:39:21.020Z,2.72
2023-02-12T20:41:23.796Z,2.76
2023-02-12T20:43:25.418Z,2.78
2023-02-12T20:45:27.125Z,2.80
2023-02-12T20:47:29.048Z,2.73
2023-02-12T20:49:30.698Z,2.76
2023-02-12T20:51:32.915Z,2.77
2023-02-12T20:53:35.435Z,2.74
2023-02-12T20:55:37.096Z,2.74
2023-02-12T20:57:38.764Z,2.72
2023-02-12T20:59:40.479Z,2.54
2023-02-12T21:01:42.996Z,2.49
2023-02-12T21:03:45.124Z,2.35
2023-02-12T21:05:46.732Z,2.07
2023-02-12T21:07:49.827Z,1.90
2023-02-12T21:09:51.481Z,1.74
2023-02-12T21:11:53.195Z,1.68
2023-02-12T21:14:18.365Z,1.70
2023-02-12T21:16:18.523Z,1.62
2023-02-12T21:18:24.210Z,1.65
2023-02-12T21:20:25.899Z,1.74
2023-02-12T21:22:27.532Z,1.85
2023-02-12T21:24:29.211Z,1.91
2023-02-12T21:26:32.397Z,2.01
2023-02-12T21:28:34.746Z,2.05
2023-02-12T21:30:36.441Z,2.11
2023-02-12T21:32:37.989Z,2.10
2023-02-12T21:34:39.700Z,2.10
2023-02-12T21:36:42.357Z,2.13
2023-02-12T21:38:45.596Z,2.15
2023-02-12T21:40:47.240Z,2.18
2023-02-12T21:42:48.936Z,2.21
2023-02-12T21:44:50.633Z,2.27
2023-02-12T21:46:52.722Z,2.31
2023-02-12T21:48:55.378Z,2.34
2023-02-12T21:50:57.482Z,2.33
2023-02-12T21:52:59.258Z,2.18
2023-02-12T21:55:00.945Z,2.05
2023-02-12T21:57:02.613Z,1.92
2023-02-12T21:59:04.509Z,1.73
2023-02-12T22:01:11.436Z,1.62
2023-02-12T22:03:13.166Z,1.73
2023-02-12T22:05:14.887Z,1.77
2023-02-12T22:07:16.791Z,1.84
2023-02-12T22:09:20.630Z,1.93
2023-02-12T22:11:23.383Z,2.02
2023-02-12T22:13:24.994Z,2.02
2023-02-12T22:15:26.640Z,2.02
2023-02-12T22:17:28.304Z,2.07
2023-02-12T22:19:29.935Z,2.08
2023-02-12T22:21:34.895Z,2.13
2023-02-12T22:23:37.226Z,2.09
2023-02-12T22:25:38.910Z,2.10
2023-02-12T22:27:40.528Z,2.07
2023-02-12T22:29:42.157Z,2.10
2023-02-12T22:31:45.474Z,2.13
2023-02-12T22:33:47.848Z,2.15
2023-02-12T22:35:49.498Z,2.15
2023-02-12T22:37:51.101Z,2.04
2023-02-12T22:39:52.752Z,1.97
2023-02-12T22:41:54.662Z,1.93
2023-02-12T22:43:59.107Z,1.81
2023-02-12T22:46:01.107Z,1.74
2023-02-12T22:48:02.830Z,1.70
2023-02-12T22:50:05.123Z,1.71
2023-02-12T22:52:06.723Z,1.70
2023-02-12T22:54:13.402Z,1.79
2023-02-12T22:56:15.666Z,1.84
2023-02-12T22:58:17.558Z,1.90
2023-02-12T23:00:19.879Z,1.95
2023-02-12T23:02:21.507Z,2.01
2023-02-12T23:04:23.973Z,1.99
2023-02-12T23:06:29.266Z,1.95
2023-02-12T23:08:31.754Z,1.90
2023-02-12T23:10:33.516Z,1.86
2023-02-12T23:12:35.204Z,1.89
2023-02-12T23:14:36.781Z,1.84
2023-02-12T23:16:38.482Z,1.87
2023-02-12T23:18:40.169Z,1.74
2023-02-12T23:20:41.924Z,1.69
2023-02-12T23:22:43.586Z,1.72
2023-02-12T23:24:46.078Z,1.74
2023-02-12T23:26:47.775Z,1.79
2023-02-12T23:28:49.466Z,1.77
2023-02-12T23:30:52.232Z,1.62
2023-02-12T23:32:54.155Z,1.62
2023-02-12T23:34:55.860Z,1.59
2023-02-12T23:36:57.584Z,1.65
2023-02-12T23:38:59.442Z,1.65
2023-02-12T23:41:01.052Z,1.62
2023-02-12T23:43:02.749Z,1.59
2023-02-12T23:45:04.560Z,1.58
2023-02-12T23:47:06.195Z,1.60
2023-02-12T23:49:07.897Z,1.64
2023-02-12T23:51:10.240Z,1.64
2023-02-12T23:53:12.312Z,1.67
2023-02-12T23:55:13.958Z,1.70
2023-02-12T23:57:15.779Z,1.72
2023-02-12T23:59:17.554Z,1.72
